createdAt,value
2018-06-25T00:01:44.672Z,13.90
2018-06-25T00:04:16.612Z,14.00
2018-06-25T00:06:48.678Z,14.00
2018-06-25T00:09:20.653Z,14.10
2018-06-25T00:11:52.525Z,13.90
2018-06-25T00:14:24.464Z,13.80
2018-06-25T00:16:56.372Z,13.90
2018-06-25T00:19:28.291Z,13.70
2018-06-25T00:22:00.182Z,13.50
2018-06-25T00:24:32.092Z,13.60
2018-06-25T00:27:03.955Z,13.60
2018-06-25T00:29:35.619Z,13.50
2018-06-25T00:32:07.350Z,13.50
2018-06-25T00:34:38.947Z,13.40
2018-06-25T00:37:10.715Z,13.50
2018-06-25T00:39:42.354Z,13.60
2018-06-25T00:42:14.047Z,13.50
2018-06-25T00:44:45.673Z,13.30
2018-06-25T00:47:17.286Z,13.20
2018-06-25T00:49:48.967Z,13.40
2018-06-25T00:52:20.694Z,13.40
2018-06-25T00:54:52.874Z,13.20
2018-06-25T00:57:24.934Z,13.20
2018-06-25T00:59:57.309Z,13.20
2018-06-25T01:02:28.996Z,13.20
2018-06-25T01:05:00.566Z,13.30
2018-06-25T01:07:32.255Z,13.30
2018-06-25T01:10:03.915Z,13.10
2018-06-25T01:12:35.634Z,13.10
2018-06-25T01:15:07.389Z,13.20
2018-06-25T01:17:39.058Z,13.00
2018-06-25T01:20:10.707Z,13.10
2018-06-25T01:22:42.337Z,13.40
2018-06-25T01:25:13.979Z,13.30
2018-06-25T01:27:45.714Z,13.30
2018-06-25T01:30:17.567Z,13.40
2018-06-25T01:32:49.374Z,13.20
2018-06-25T01:37:52.626Z,13.10
2018-06-25T01:40:24.227Z,13.10
2018-06-25T01:42:55.955Z,13.00
2018-06-25T01:45:27.686Z,13.10
2018-06-25T01:47:59.360Z,13.00
2018-06-25T01:50:31.074Z,13.10
2018-06-25T01:53:02.731Z,13.10
2018-06-25T01:55:34.333Z,13.10
2018-06-25T01:58:06.026Z,12.90
2018-06-25T02:00:37.787Z,13.00
2018-06-25T02:03:09.405Z,13.10
2018-06-25T02:05:41.034Z,13.00
2018-06-25T02:10:43.743Z,13.00
2018-06-25T02:13:15.467Z,12.90
2018-06-25T02:15:47.058Z,13.00
2018-06-25T02:18:18.770Z,12.80
2018-06-25T02:20:50.412Z,12.90
2018-06-25T02:23:22.134Z,13.10
2018-06-25T02:25:53.860Z,13.00
2018-06-25T02:28:25.526Z,13.10
2018-06-25T02:30:57.155Z,12.80
2018-06-25T02:33:28.783Z,13.00
2018-06-25T02:36:00.393Z,13.00
2018-06-25T02:38:32.061Z,13.10
2018-06-25T02:41:03.782Z,13.00
2018-06-25T02:43:35.543Z,13.00
2018-06-25T02:46:07.186Z,13.00
2018-06-25T02:48:38.794Z,13.00
2018-06-25T02:51:10.595Z,13.10
2018-06-25T02:53:42.274Z,12.90
2018-06-25T02:56:14.006Z,12.70
2018-06-25T02:58:45.614Z,12.80
2018-06-25T03:03:48.994Z,12.80
2018-06-25T03:06:20.626Z,12.90
2018-06-25T03:08:52.378Z,13.10
2018-06-25T03:11:24.053Z,13.10
2018-06-25T03:13:55.634Z,13.00
2018-06-25T03:16:27.253Z,12.80
2018-06-25T03:18:58.900Z,12.90
2018-06-25T03:21:30.472Z,13.00
2018-06-25T03:24:02.253Z,12.90
2018-06-25T03:26:33.845Z,13.00
2018-06-25T03:29:05.475Z,13.10
2018-06-25T03:31:37.637Z,13.00
2018-06-25T03:34:09.234Z,13.00
2018-06-25T03:36:41.134Z,13.10
2018-06-25T03:39:13.555Z,13.20
2018-06-25T03:41:45.146Z,13.20
2018-06-25T03:44:16.766Z,13.20
2018-06-25T03:46:48.374Z,13.30
2018-06-25T03:49:19.996Z,13.20
2018-06-25T03:51:51.593Z,13.20
2018-06-25T03:54:23.225Z,13.20
2018-06-25T03:56:54.955Z,13.20
2018-06-25T03:59:26.674Z,13.10
2018-06-25T04:01:58.294Z,13.10
2018-06-25T04:04:29.914Z,13.00
2018-06-25T04:07:01.515Z,12.80
2018-06-25T04:09:33.127Z,12.70
2018-06-25T04:12:04.780Z,12.60
2018-06-25T04:14:36.394Z,12.50
2018-06-25T04:17:07.992Z,12.40
2018-06-25T04:19:39.596Z,12.40
2018-06-25T04:22:11.134Z,12.50
2018-06-25T04:24:42.788Z,12.30
2018-06-25T04:27:14.335Z,12.20
2018-06-25T04:29:45.995Z,12.20
2018-06-25T04:32:17.596Z,12.20
2018-06-25T04:34:49.214Z,12.40
2018-06-25T04:37:21.059Z,12.40
2018-06-25T04:39:52.674Z,12.30
2018-06-25T04:42:24.248Z,12.30
2018-06-25T04:44:55.894Z,12.40
2018-06-25T04:47:27.546Z,12.40
2018-06-25T04:49:59.153Z,12.40
2018-06-25T04:52:30.722Z,12.40
2018-06-25T04:55:02.407Z,12.30
2018-06-25T04:57:34.147Z,12.50
2018-06-25T05:00:06.056Z,12.40
2018-06-25T05:02:37.607Z,12.30
2018-06-25T05:05:09.285Z,12.30
2018-06-25T05:07:40.955Z,12.40
2018-06-25T05:10:12.613Z,12.20
2018-06-25T05:15:15.254Z,12.10
2018-06-25T05:17:46.906Z,12.10
2018-06-25T05:20:18.530Z,12.20
2018-06-25T05:22:50.197Z,12.20
2018-06-25T05:25:21.895Z,12.30
2018-06-25T05:27:53.479Z,12.30
2018-06-25T05:30:25.175Z,12.30
2018-06-25T05:32:56.819Z,12.40
2018-06-25T05:35:28.515Z,12.40
2018-06-25T05:38:00.170Z,12.40
2018-06-25T05:40:31.838Z,12.20
2018-06-25T05:43:03.414Z,12.20
2018-06-25T05:45:35.035Z,12.20
2018-06-25T05:48:06.755Z,12.20
2018-06-25T05:50:38.695Z,12.40
2018-06-25T05:55:41.207Z,12.50
2018-06-25T05:58:12.815Z,12.50
2018-06-25T06:00:44.487Z,12.60
2018-06-25T06:03:16.201Z,12.50
2018-06-25T06:05:47.943Z,12.50
2018-06-25T06:08:19.555Z,12.70
2018-06-25T06:10:51.175Z,12.80
2018-06-25T06:13:22.753Z,12.80
2018-06-25T06:15:54.517Z,12.80
2018-06-25T06:18:26.310Z,12.80
2018-06-25T06:20:58.637Z,12.60
2018-06-25T06:23:30.683Z,12.80
2018-06-25T06:26:02.316Z,12.70
2018-06-25T06:28:33.946Z,12.70
2018-06-25T06:31:05.694Z,12.80
2018-06-25T06:33:37.379Z,12.90
2018-06-25T06:36:09.034Z,12.60
2018-06-25T06:38:40.635Z,12.80
2018-06-25T06:41:12.347Z,12.90
2018-06-25T06:46:15.193Z,13.00
2018-06-25T06:48:46.896Z,12.80
2018-06-25T06:51:18.548Z,13.00
2018-06-25T06:53:50.182Z,12.90
2018-06-25T06:56:24.390Z,13.10
2018-06-25T06:58:56.202Z,13.00
2018-06-25T07:01:27.835Z,13.00
2018-06-25T07:04:02.237Z,13.10
2018-06-25T07:09:07.566Z,12.80
2018-06-25T07:11:39.282Z,12.90
2018-06-25T07:14:11.104Z,13.00
2018-06-25T07:16:42.855Z,13.10
2018-06-25T07:19:14.486Z,13.00
2018-06-25T07:21:46.147Z,13.00
2018-06-25T07:24:17.755Z,13.20
2018-06-25T07:26:49.394Z,13.30
2018-06-25T07:29:21.319Z,13.00
2018-06-25T07:31:53.058Z,13.00
2018-06-25T07:34:24.799Z,13.00
2018-06-25T07:36:57.131Z,12.90
2018-06-25T07:39:28.694Z,12.80
2018-06-25T07:42:00.315Z,13.00
2018-06-25T07:47:02.924Z,13.00
2018-06-25T07:49:34.800Z,13.20
2018-06-25T07:52:06.534Z,13.10
2018-06-25T07:54:38.174Z,13.10
2018-06-25T07:57:09.814Z,13.10
2018-06-25T07:59:41.333Z,13.00
2018-06-25T08:02:13.035Z,13.00
2018-06-25T08:04:44.594Z,12.80
2018-06-25T08:07:16.241Z,12.80
2018-06-25T08:09:47.880Z,12.90
2018-06-25T08:12:19.506Z,13.10
2018-06-25T08:14:51.126Z,13.10
2018-06-25T08:17:22.829Z,13.10
2018-06-25T08:19:54.534Z,13.30
2018-06-25T08:22:26.464Z,13.50
2018-06-25T08:24:58.061Z,13.50
2018-06-25T08:27:29.870Z,13.50
2018-06-25T08:30:01.547Z,13.50
2018-06-25T08:32:33.214Z,13.70
2018-06-25T08:35:04.987Z,13.70
2018-06-25T08:40:07.831Z,13.70
2018-06-25T08:42:39.507Z,13.90
2018-06-25T08:45:11.231Z,14.10
2018-06-25T08:47:43.414Z,14.30
2018-06-25T08:50:15.547Z,14.00
2018-06-25T08:52:47.215Z,13.90
2018-06-25T08:55:19.390Z,13.90
2018-06-25T08:57:51.203Z,13.90
2018-06-25T09:00:22.883Z,14.10
2018-06-25T09:02:54.636Z,14.10
2018-06-25T09:05:26.277Z,14.20
2018-06-25T09:07:58.414Z,14.30
2018-06-25T09:13:04.145Z,14.60
2018-06-25T09:15:35.770Z,14.90
2018-06-25T09:18:07.774Z,14.90
2018-06-25T09:20:39.387Z,14.80
2018-06-25T09:23:11.159Z,14.90
2018-06-25T09:25:42.733Z,14.80
2018-06-25T09:28:14.349Z,14.80
2018-06-25T09:30:45.886Z,14.80
2018-06-25T09:33:17.510Z,14.70
2018-06-25T09:35:49.166Z,14.80
2018-06-25T09:38:20.834Z,14.60
2018-06-25T09:40:52.558Z,14.90
2018-06-25T09:43:24.167Z,15.10
2018-06-25T09:45:55.859Z,15.40
2018-06-25T09:48:27.474Z,15.40
2018-06-25T09:50:59.113Z,15.50
2018-06-25T09:53:30.810Z,15.30
2018-06-25T09:56:02.554Z,15.40
2018-06-25T09:58:34.298Z,15.20
2018-06-25T10:01:12.251Z,15.00
2018-06-25T10:03:43.816Z,14.90
2018-06-25T10:06:15.446Z,14.70
2018-06-25T10:08:47.103Z,14.70
2018-06-25T10:11:18.770Z,14.60
2018-06-25T10:13:50.454Z,14.70
2018-06-25T10:16:22.546Z,14.80
2018-06-25T10:21:25.262Z,14.70
2018-06-25T10:23:56.914Z,14.60
2018-06-25T10:26:28.467Z,14.60
2018-06-25T10:29:00.173Z,14.60
2018-06-25T10:31:31.679Z,14.90
2018-06-25T10:34:03.276Z,15.50
2018-06-25T10:36:34.886Z,15.60
2018-06-25T10:39:10.233Z,15.10
2018-06-25T10:41:41.834Z,14.90
2018-06-25T10:44:13.474Z,15.40
2018-06-25T10:46:45.130Z,15.10
2018-06-25T10:49:16.759Z,15.10
2018-06-25T10:51:48.306Z,15.00
2018-06-25T10:56:51.055Z,14.80
2018-06-25T10:59:22.699Z,14.90
2018-06-25T11:01:54.954Z,15.10
2018-06-25T11:04:26.807Z,16.10
2018-06-25T11:06:58.727Z,16.00
2018-06-25T11:09:30.436Z,15.80
2018-06-25T11:12:02.575Z,15.70
2018-06-25T11:17:05.473Z,16.70
2018-06-25T11:19:37.166Z,16.40
2018-06-25T11:22:08.794Z,15.70
2018-06-25T11:24:40.494Z,16.20
2018-06-25T11:27:12.320Z,16.10
2018-06-25T11:29:43.931Z,16.10
2018-06-25T11:32:15.546Z,16.20
2018-06-25T11:34:47.234Z,16.10
2018-06-25T11:37:18.948Z,15.70
2018-06-25T11:39:50.567Z,15.50
2018-06-25T11:42:22.134Z,15.40
2018-06-25T11:44:53.775Z,15.60
2018-06-25T11:47:26.466Z,16.30
2018-06-25T11:49:58.126Z,17.00
2018-06-25T11:52:29.814Z,16.70
2018-06-25T11:55:01.881Z,16.40
2018-06-25T11:57:33.567Z,16.40
2018-06-25T12:00:06.166Z,16.20
2018-06-25T12:02:38.256Z,16.00
2018-06-25T12:07:41.142Z,16.80
2018-06-25T12:10:12.955Z,17.00
2018-06-25T12:12:44.678Z,17.10
2018-06-25T12:15:16.530Z,16.70
2018-06-25T12:17:48.246Z,17.20
2018-06-25T12:20:19.977Z,16.60
2018-06-25T12:22:51.615Z,16.40
2018-06-25T12:25:23.307Z,16.30
2018-06-25T12:27:54.956Z,16.40
2018-06-25T12:30:26.639Z,16.60
2018-06-25T12:32:58.275Z,16.50
2018-06-25T12:35:29.886Z,16.50
2018-06-25T12:38:01.644Z,17.10
2018-06-25T12:40:33.267Z,16.60
2018-06-25T12:45:36.016Z,17.10
2018-06-25T12:48:07.914Z,16.80
2018-06-25T12:50:39.627Z,16.50
2018-06-25T12:53:11.213Z,16.70
2018-06-25T12:55:42.934Z,16.70
2018-06-25T12:58:14.613Z,16.50
2018-06-25T13:00:46.362Z,16.80
2018-06-25T13:05:48.995Z,16.80
2018-06-25T13:08:20.655Z,16.90
2018-06-25T13:10:52.362Z,17.00
2018-06-25T13:13:24.003Z,16.80
2018-06-25T13:15:55.763Z,16.90
2018-06-25T13:18:27.469Z,17.10
2018-06-25T13:20:59.106Z,17.00
2018-06-25T13:23:30.768Z,16.90
2018-06-25T13:26:02.509Z,16.90
2018-06-25T13:28:34.177Z,17.00
2018-06-25T13:31:05.882Z,17.00
2018-06-25T13:33:37.518Z,17.00
2018-06-25T13:36:09.324Z,17.80
2018-06-25T13:38:41.089Z,18.30
2018-06-25T13:41:12.827Z,19.20
2018-06-25T13:43:44.511Z,19.40
2018-06-25T13:46:16.267Z,18.80
2018-06-25T13:48:47.967Z,18.10
2018-06-25T13:51:19.737Z,18.00
2018-06-25T13:53:51.394Z,18.00
2018-06-25T13:56:23.137Z,18.10
2018-06-25T13:58:54.802Z,18.40
2018-06-25T14:01:26.472Z,18.50
2018-06-25T14:03:58.239Z,18.20
2018-06-25T14:06:30.063Z,18.20
2018-06-25T14:09:02.015Z,18.80
2018-06-25T14:11:34.175Z,18.50
2018-06-25T14:14:06.937Z,18.10
2018-06-25T14:16:39.432Z,17.90
2018-06-25T14:19:10.942Z,18.80
2018-06-25T14:24:19.113Z,20.40
2018-06-25T14:26:50.886Z,19.40
2018-06-25T14:29:28.461Z,19.90
2018-06-25T14:34:48.743Z,19.70
2018-06-25T14:37:20.346Z,19.50
2018-06-25T14:39:51.934Z,20.60
2018-06-25T14:42:23.730Z,20.40
2018-06-25T14:44:55.286Z,19.50
2018-06-25T14:47:27.007Z,19.20
2018-06-25T14:49:58.646Z,20.20
2018-06-25T14:52:30.536Z,20.70
2018-06-25T14:55:02.204Z,20.80
2018-06-25T14:57:33.874Z,20.90
2018-06-25T15:00:05.588Z,21.30
2018-06-25T15:02:37.458Z,21.40
2018-06-25T15:05:09.206Z,21.80
2018-06-25T15:07:40.829Z,21.40
2018-06-25T15:10:13.100Z,21.40
2018-06-25T15:12:45.566Z,21.20
2018-06-25T15:15:17.085Z,21.00
2018-06-25T15:17:48.746Z,19.70
2018-06-25T15:20:21.334Z,19.10
2018-06-25T15:22:53.134Z,19.00
2018-06-25T15:25:25.668Z,18.50
2018-06-25T15:27:58.267Z,18.40
2018-06-25T15:30:30.207Z,18.50
2018-06-25T15:33:03.755Z,18.40
2018-06-25T15:35:35.994Z,18.50
2018-06-25T15:38:07.708Z,18.40
2018-06-25T15:40:39.662Z,18.70
2018-06-25T15:43:11.479Z,18.90
2018-06-25T15:45:43.226Z,18.90
2018-06-25T15:48:14.985Z,18.70
2018-06-25T15:50:46.751Z,18.50
2018-06-25T15:53:19.548Z,18.40
2018-06-25T15:55:51.353Z,18.40
2018-06-25T15:58:23.136Z,18.50
2018-06-25T16:00:54.891Z,18.80
2018-06-25T16:03:26.759Z,18.90
2018-06-25T16:05:58.970Z,19.00
2018-06-25T16:08:30.739Z,19.70
2018-06-25T16:11:02.967Z,20.90
2018-06-25T16:13:34.698Z,21.10
2018-06-25T16:16:06.636Z,19.80
2018-06-25T16:18:38.447Z,19.30
2018-06-25T16:21:10.143Z,19.00
2018-06-25T16:23:41.942Z,18.90
2018-06-25T16:26:13.730Z,18.80
2018-06-25T16:28:45.297Z,18.80
2018-06-25T16:31:17.003Z,18.40
2018-06-25T16:33:48.666Z,18.20
2018-06-25T16:36:20.445Z,18.10
2018-06-25T16:38:52.207Z,18.00
2018-06-25T16:41:24.254Z,18.00
2018-06-25T16:43:55.937Z,18.10
2018-06-25T16:46:27.666Z,18.00
2018-06-25T16:48:59.381Z,18.40
2018-06-25T16:54:02.793Z,18.00
2018-06-25T16:56:34.379Z,18.20
2018-06-25T16:59:06.886Z,19.20
2018-06-25T17:01:38.466Z,19.60
2018-06-25T17:04:11.934Z,19.60
2018-06-25T17:06:43.598Z,19.70
2018-06-25T17:09:15.403Z,18.60
2018-06-25T17:14:19.041Z,18.20
2018-06-25T17:16:51.114Z,17.80
2018-06-25T17:19:22.836Z,17.60
2018-06-25T17:21:54.495Z,17.50
2018-06-25T17:24:26.290Z,17.60
2018-06-25T17:26:57.997Z,17.60
2018-06-25T17:29:29.675Z,17.70
2018-06-25T17:32:02.124Z,17.40
2018-06-25T17:34:34.113Z,17.70
2018-06-25T17:37:05.760Z,17.70
2018-06-25T17:39:37.490Z,17.60
2018-06-25T17:42:09.349Z,17.40
2018-06-25T17:44:47.307Z,17.40
2018-06-25T17:47:19.297Z,17.30
2018-06-25T17:49:51.295Z,17.40
2018-06-25T17:52:23.083Z,17.40
2018-06-25T17:54:54.818Z,17.30
2018-06-25T17:57:27.037Z,17.20
2018-06-25T17:59:58.967Z,17.30
2018-06-25T18:02:30.684Z,17.20
2018-06-25T18:05:02.305Z,17.20
2018-06-25T18:07:34.004Z,17.30
2018-06-25T18:10:06.165Z,17.00
2018-06-25T18:12:37.876Z,16.90
2018-06-25T18:15:09.770Z,16.90
2018-06-25T18:20:12.640Z,16.90
2018-06-25T18:22:44.397Z,17.00
2018-06-25T18:25:16.422Z,16.90
2018-06-25T18:27:48.401Z,16.90
2018-06-25T18:30:20.047Z,16.90
2018-06-25T18:32:51.635Z,17.20
2018-06-25T18:35:23.440Z,17.10
2018-06-25T18:40:26.397Z,16.90
2018-06-25T18:42:58.020Z,16.90
2018-06-25T18:45:30.414Z,16.80
2018-06-25T18:48:02.072Z,16.70
2018-06-25T18:53:04.814Z,16.70
2018-06-25T18:55:36.518Z,16.70
2018-06-25T18:58:09.386Z,16.60
2018-06-25T19:00:41.237Z,16.60
2018-06-25T19:03:12.917Z,16.40
2018-06-25T19:05:44.656Z,16.40
2018-06-25T19:08:16.295Z,16.40
2018-06-25T19:10:48.842Z,16.40
2018-06-25T19:13:21.475Z,16.20
2018-06-25T19:15:53.167Z,16.10
2018-06-25T19:18:24.900Z,16.00
2018-06-25T19:20:56.660Z,16.00
2018-06-25T19:23:28.320Z,16.10
2018-06-25T19:26:01.214Z,16.20
2018-06-25T19:28:32.989Z,16.20
2018-06-25T19:31:04.834Z,16.00
2018-06-25T19:33:36.629Z,16.00
2018-06-25T19:36:08.421Z,16.10
2018-06-25T19:38:40.035Z,16.10
2018-06-25T19:41:11.709Z,16.00
2018-06-25T19:43:43.418Z,16.00
2018-06-25T19:46:15.076Z,16.00
2018-06-25T19:48:47.155Z,15.90
2018-06-25T19:51:18.767Z,15.90
2018-06-25T19:53:50.458Z,16.00
2018-06-25T19:56:21.988Z,16.10
2018-06-25T19:58:53.849Z,15.90
2018-06-25T20:01:26.589Z,15.90
2018-06-25T20:03:58.121Z,15.80
2018-06-25T20:06:29.861Z,15.70
2018-06-25T20:09:01.690Z,15.70
2018-06-25T20:11:33.465Z,15.80
2018-06-25T20:14:05.288Z,16.00
2018-06-25T20:16:36.952Z,15.70
2018-06-25T20:19:08.596Z,15.80
2018-06-25T20:21:40.289Z,15.60
2018-06-25T20:24:12.074Z,15.50
2018-06-25T20:26:43.712Z,15.60
2018-06-25T20:31:47.243Z,15.80
2018-06-25T20:34:19.039Z,15.60
2018-06-25T20:36:50.815Z,15.60
2018-06-25T20:39:22.573Z,15.50
2018-06-25T20:41:54.494Z,15.60
2018-06-25T20:44:26.158Z,15.50
2018-06-25T20:46:57.974Z,15.60
2018-06-25T20:49:29.607Z,15.50
2018-06-25T20:52:02.115Z,15.40
2018-06-25T20:57:04.898Z,15.40
2018-06-25T20:59:36.594Z,15.30
2018-06-25T21:02:08.615Z,15.50
2018-06-25T21:04:40.406Z,15.10
2018-06-25T21:07:12.163Z,15.10
2018-06-25T21:09:43.955Z,15.20
2018-06-25T21:12:15.843Z,15.30
2018-06-25T21:14:47.598Z,15.40
2018-06-25T21:17:19.288Z,15.40
2018-06-25T21:22:22.155Z,15.20
2018-06-25T21:24:53.807Z,15.00
2018-06-25T21:27:25.587Z,14.90
2018-06-25T21:29:57.307Z,14.90
2018-06-25T21:32:29.077Z,14.90
2018-06-25T21:35:00.784Z,14.90
2018-06-25T21:37:32.498Z,15.00
2018-06-25T21:40:04.139Z,15.00
2018-06-25T21:42:36.115Z,14.90
2018-06-25T21:45:07.817Z,14.80
2018-06-25T21:47:39.587Z,14.80
2018-06-25T21:50:11.275Z,14.80
2018-06-25T21:52:42.887Z,14.70
2018-06-25T21:55:14.475Z,14.50
2018-06-25T21:57:46.208Z,14.70
2018-06-25T22:00:17.930Z,14.80
2018-06-25T22:02:49.878Z,14.80
2018-06-25T22:05:21.679Z,14.80
2018-06-25T22:07:53.369Z,14.80
2018-06-25T22:10:25.047Z,14.70
2018-06-25T22:12:57.042Z,14.70
2018-06-25T22:15:28.795Z,14.60
2018-06-25T22:18:00.355Z,14.70
2018-06-25T22:20:31.975Z,14.70
2018-06-25T22:23:03.762Z,14.60
2018-06-25T22:25:35.478Z,14.60
2018-06-25T22:28:07.303Z,14.60
2018-06-25T22:30:38.951Z,14.80
2018-06-25T22:33:10.775Z,14.80
2018-06-25T22:35:42.554Z,14.80
2018-06-25T22:38:14.234Z,14.60
2018-06-25T22:40:45.915Z,14.60
2018-06-25T22:43:17.607Z,14.70
2018-06-25T22:45:49.269Z,14.50
2018-06-25T22:48:21.024Z,14.40
2018-06-25T22:50:52.702Z,14.40
2018-06-25T22:53:24.389Z,14.30
2018-06-25T22:55:56.135Z,14.50
2018-06-25T22:58:27.814Z,14.40
2018-06-25T23:00:59.535Z,14.30
2018-06-25T23:03:31.215Z,14.20
2018-06-25T23:06:02.807Z,14.20
2018-06-25T23:08:34.453Z,14.30
2018-06-25T23:11:06.514Z,14.40
2018-06-25T23:13:38.235Z,14.20
2018-06-25T23:16:09.854Z,14.30
2018-06-25T23:18:41.477Z,14.30
2018-06-25T23:21:13.127Z,14.40
2018-06-25T23:23:44.869Z,14.50
2018-06-25T23:26:16.523Z,14.60
2018-06-25T23:28:48.175Z,14.30
2018-06-25T23:31:19.895Z,14.10
2018-06-25T23:33:51.575Z,14.20
2018-06-25T23:36:23.215Z,14.20
2018-06-25T23:38:54.918Z,14.30
2018-06-25T23:41:26.647Z,14.40
2018-06-25T23:43:59.254Z,14.40
2018-06-25T23:46:30.908Z,14.50
2018-06-25T23:49:02.527Z,14.50
2018-06-25T23:51:34.167Z,14.40
2018-06-25T23:54:06.015Z,14.40
2018-06-25T23:56:37.735Z,14.40
2018-06-25T23:59:09.417Z,14.40
